createdAt,value
2019-01-24T00:00:25.296Z,100448.80
2019-01-24T00:03:32.505Z,100453.52
2019-01-24T00:06:39.651Z,100454.80
2019-01-24T00:09:46.878Z,100461.89
2019-01-24T00:12:52.967Z,100470.97
2019-01-24T00:16:00.154Z,100478.51
2019-01-24T00:19:07.417Z,100473.20
2019-01-24T00:22:14.564Z,100486.05
2019-01-24T00:25:31.410Z,100488.16
2019-01-24T00:28:48.066Z,100486.16
2019-01-24T00:31:55.253Z,100489.81
2019-01-24T00:35:02.448Z,100489.48
2019-01-24T00:38:09.716Z,100492.41
2019-01-24T00:41:16.975Z,100490.39
2019-01-24T00:44:33.589Z,100493.98
2019-01-24T00:47:41.042Z,100503.70
2019-01-24T00:50:57.610Z,100501.30
2019-01-24T00:54:14.302Z,100508.72
2019-01-24T00:57:21.640Z,100519.91
2019-01-24T01:00:38.323Z,100518.90
2019-01-24T01:03:55.133Z,100519.91
2019-01-24T01:07:11.882Z,100519.73
2019-01-24T01:10:19.474Z,100528.75
2019-01-24T01:13:35.793Z,100524.34
2019-01-24T01:16:43.015Z,100533.55
2019-01-24T01:19:59.802Z,100531.46
2019-01-24T01:23:07.077Z,100537.00
2019-01-24T01:26:23.681Z,100531.02
2019-01-24T01:29:40.503Z,100534.06
2019-01-24T01:32:47.743Z,100537.82
2019-01-24T01:36:04.978Z,100541.17
2019-01-24T01:39:21.529Z,100535.82
2019-01-24T01:42:28.728Z,100539.56
2019-01-24T01:45:35.934Z,100543.73
2019-01-24T01:48:52.660Z,100532.44
2019-01-24T01:51:59.877Z,100546.33
2019-01-24T01:55:16.726Z,100549.26
2019-01-24T01:58:33.475Z,100548.79
2019-01-24T02:01:40.662Z,100545.00
2019-01-24T02:04:57.327Z,100554.21
2019-01-24T02:08:04.633Z,100553.87
2019-01-24T02:11:21.271Z,100561.81
2019-01-24T02:14:38.055Z,100570.08
2019-01-24T02:17:45.376Z,100565.91
2019-01-24T02:21:01.913Z,100568.50
2019-01-24T02:24:09.220Z,100573.45
2019-01-24T02:27:25.858Z,100569.86
2019-01-24T02:30:33.071Z,100580.25
2019-01-24T02:33:40.283Z,100576.09
2019-01-24T02:36:47.611Z,100574.84
2019-01-24T02:39:55.940Z,100574.03
2019-01-24T02:43:03.245Z,100582.89
2019-01-24T02:46:10.440Z,100585.55
2019-01-24T02:49:17.714Z,100568.52
2019-01-24T02:52:24.853Z,100581.98
2019-01-24T02:55:32.398Z,100586.58
2019-01-24T02:58:39.604Z,100581.15
2019-01-24T03:01:46.755Z,100585.72
2019-01-24T03:05:05.154Z,100576.81
2019-01-24T03:08:12.293Z,100577.72
2019-01-24T03:11:19.538Z,100570.94
2019-01-24T03:14:26.766Z,100576.52
2019-01-24T03:17:34.209Z,100578.30
2019-01-24T03:20:41.455Z,100580.79
2019-01-24T03:23:48.834Z,100575.77
2019-01-24T03:27:05.619Z,100585.89
2019-01-24T03:30:15.668Z,100592.09
2019-01-24T03:33:22.882Z,100593.77
2019-01-24T03:36:30.295Z,100604.14
2019-01-24T03:39:37.537Z,100603.30
2019-01-24T03:42:54.289Z,100602.88
2019-01-24T03:46:11.055Z,100609.48
2019-01-24T03:49:19.072Z,100608.83
2019-01-24T03:52:26.353Z,100617.95
2019-01-24T03:55:33.562Z,100611.61
2019-01-24T03:58:40.770Z,100609.07
2019-01-24T04:01:47.997Z,100615.19
2019-01-24T04:04:55.364Z,100618.19
2019-01-24T04:08:02.583Z,100613.35
2019-01-24T04:11:09.801Z,100619.20
2019-01-24T04:14:17.017Z,100609.82
2019-01-24T04:17:24.229Z,100618.02
2019-01-24T04:20:31.601Z,100615.95
2019-01-24T04:23:38.805Z,100612.20
2019-01-24T04:26:46.167Z,100617.79
2019-01-24T04:29:53.273Z,100616.11
2019-01-24T04:33:00.485Z,100616.23
2019-01-24T04:36:07.798Z,100611.98
2019-01-24T04:39:13.899Z,100615.81
2019-01-24T04:42:30.136Z,100612.53
2019-01-24T04:45:46.974Z,100614.55
2019-01-24T04:49:03.793Z,100609.95
2019-01-24T04:52:10.447Z,100609.94
2019-01-24T04:55:21.240Z,100621.69
2019-01-24T04:58:28.367Z,100609.45
2019-01-24T05:01:35.502Z,100609.48
2019-01-24T05:04:42.668Z,100613.73
2019-01-24T05:07:49.962Z,100622.51
2019-01-24T05:10:57.204Z,100624.19
2019-01-24T05:14:04.658Z,100625.39
2019-01-24T05:17:21.585Z,100632.63
2019-01-24T05:20:37.991Z,100630.52
2019-01-24T05:23:45.325Z,100627.11
2019-01-24T05:27:01.919Z,100631.73
2019-01-24T05:30:15.595Z,100635.90
2019-01-24T05:33:22.765Z,100647.70
2019-01-24T05:36:29.899Z,100635.51
2019-01-24T05:39:37.285Z,100643.80
2019-01-24T05:42:54.034Z,100648.48
2019-01-24T05:46:10.911Z,100646.02
2019-01-24T05:49:27.691Z,100642.67
2019-01-24T05:52:34.899Z,100652.25
2019-01-24T05:55:51.575Z,100645.14
2019-01-24T05:58:58.709Z,100654.83
2019-01-24T06:02:06.233Z,100666.63
2019-01-24T06:05:23.254Z,100665.78
2019-01-24T06:08:39.514Z,100667.02
2019-01-24T06:11:46.648Z,100668.20
2019-01-24T06:14:53.904Z,100669.47
2019-01-24T06:18:10.627Z,100674.52
2019-01-24T06:21:17.939Z,100690.48
2019-01-24T06:24:34.582Z,100684.15
2019-01-24T06:27:41.881Z,100692.99
2019-01-24T06:30:49.000Z,100706.34
2019-01-24T06:33:56.213Z,100702.55
2019-01-24T06:37:03.494Z,100701.33
2019-01-24T06:40:20.205Z,100695.44
2019-01-24T06:43:36.889Z,100693.42
2019-01-24T06:46:44.340Z,100697.61
2019-01-24T06:50:00.849Z,100690.95
2019-01-24T06:53:17.690Z,100692.65
2019-01-24T06:56:34.737Z,100693.84
2019-01-24T06:59:41.884Z,100701.37
2019-01-24T07:02:49.291Z,100703.80
2019-01-24T07:05:56.423Z,100709.67
2019-01-24T07:09:13.157Z,100708.14
2019-01-24T07:12:29.841Z,100700.55
2019-01-24T07:15:37.053Z,100703.89
2019-01-24T07:18:44.284Z,100707.19
2019-01-24T07:21:51.427Z,100716.45
2019-01-24T07:24:58.732Z,100715.97
2019-01-24T07:28:15.414Z,100721.84
2019-01-24T07:31:22.616Z,100731.46
2019-01-24T07:34:29.914Z,100742.09
2019-01-24T07:37:37.038Z,100737.42
2019-01-24T07:40:44.256Z,100738.24
2019-01-24T07:43:51.462Z,100751.22
2019-01-24T07:46:58.667Z,100745.64
2019-01-24T07:50:07.506Z,100751.08
2019-01-24T07:53:14.644Z,100753.30
2019-01-24T07:56:21.850Z,100756.75
2019-01-24T07:59:28.974Z,100757.02
2019-01-24T08:02:36.356Z,100755.77
2019-01-24T08:05:52.973Z,100754.09
2019-01-24T08:09:00.261Z,100765.49
2019-01-24T08:12:17.018Z,100766.74
2019-01-24T08:15:24.370Z,100765.05
2019-01-24T08:18:44.825Z,100771.84
2019-01-24T08:21:52.007Z,100773.86
2019-01-24T08:24:59.321Z,100787.16
2019-01-24T08:28:15.978Z,100784.31
2019-01-24T08:31:23.285Z,100788.95
2019-01-24T08:34:30.415Z,100799.47
2019-01-24T08:37:37.737Z,100807.36
2019-01-24T08:40:54.346Z,100804.10
2019-01-24T08:44:01.584Z,100803.65
2019-01-24T08:47:18.369Z,100801.71
2019-01-24T08:50:25.238Z,100808.01
2019-01-24T08:53:32.616Z,100806.25
2019-01-24T08:56:39.931Z,100815.06
2019-01-24T08:59:47.222Z,100820.99
2019-01-24T09:03:04.132Z,100820.58
2019-01-24T09:06:22.718Z,100821.41
2019-01-24T09:09:39.089Z,100819.74
2019-01-24T09:12:55.809Z,100821.91
2019-01-24T09:16:12.585Z,100818.09
2019-01-24T09:19:19.715Z,100824.84
2019-01-24T09:22:27.039Z,100821.50
2019-01-24T09:25:34.279Z,100827.72
2019-01-24T09:28:50.953Z,100826.89
2019-01-24T09:31:58.160Z,100831.97
2019-01-24T09:35:06.351Z,100838.19
2019-01-24T09:38:13.566Z,100841.22
2019-01-24T09:41:20.874Z,100846.16
2019-01-24T09:44:28.332Z,100842.81
2019-01-24T09:47:35.568Z,100849.17
2019-01-24T09:50:42.908Z,100848.33
2019-01-24T09:53:50.125Z,100844.39
2019-01-24T09:56:57.544Z,100842.02
2019-01-24T10:00:22.191Z,100835.73
2019-01-24T10:03:38.822Z,100829.75
2019-01-24T10:06:46.036Z,100839.87
2019-01-24T10:09:53.279Z,100842.80
2019-01-24T10:13:00.535Z,100844.53
2019-01-24T10:16:17.278Z,100840.77
2019-01-24T10:19:24.407Z,100841.97
2019-01-24T10:22:31.650Z,100849.85
2019-01-24T10:25:40.056Z,100848.59
2019-01-24T10:28:47.186Z,100846.22
2019-01-24T10:31:54.322Z,100842.86
2019-01-24T10:35:01.555Z,100847.01
2019-01-24T10:38:08.839Z,100844.56
2019-01-24T10:41:16.047Z,100842.81
2019-01-24T10:44:23.463Z,100843.36
2019-01-24T10:47:30.597Z,100846.14
2019-01-24T10:50:37.881Z,100839.94
2019-01-24T10:53:45.017Z,100840.00
2019-01-24T10:56:52.326Z,100841.70
2019-01-24T10:59:59.556Z,100827.03
2019-01-24T11:03:08.808Z,100839.17
2019-01-24T11:06:25.220Z,100832.48
2019-01-24T11:09:32.358Z,100835.41
2019-01-24T11:12:39.743Z,100837.57
2019-01-24T11:15:56.475Z,100836.36
2019-01-24T11:19:04.592Z,100829.66
2019-01-24T11:22:11.789Z,100834.27
2019-01-24T11:25:20.640Z,100832.58
2019-01-24T11:28:27.844Z,100832.17
2019-01-24T11:31:35.226Z,100830.48
2019-01-24T11:34:42.355Z,100821.64
2019-01-24T11:37:49.687Z,100827.49
2019-01-24T11:40:56.855Z,100824.56
2019-01-24T11:44:04.236Z,100823.41
2019-01-24T11:47:11.520Z,100822.10
2019-01-24T11:50:19.201Z,100819.95
2019-01-24T11:53:35.501Z,100808.69
2019-01-24T11:56:42.636Z,100814.14
2019-01-24T11:59:48.721Z,100813.34
2019-01-24T12:03:05.694Z,100814.19
2019-01-24T12:06:12.905Z,100817.13
2019-01-24T12:09:20.211Z,100820.06
2019-01-24T12:12:27.417Z,100813.34
2019-01-24T12:15:34.618Z,100813.30
2019-01-24T12:18:53.153Z,100813.34
2019-01-24T12:22:00.468Z,100817.50
2019-01-24T12:25:08.151Z,100824.26
2019-01-24T12:28:15.735Z,100821.73
2019-01-24T12:31:32.165Z,100820.94
2019-01-24T12:34:39.302Z,100820.11
2019-01-24T12:37:57.439Z,100813.38
2019-01-24T12:41:04.653Z,100815.48
2019-01-24T12:44:12.159Z,100815.91
2019-01-24T12:47:18.190Z,100810.88
2019-01-24T12:50:34.527Z,100802.89
2019-01-24T12:53:41.662Z,100814.64
2019-01-24T12:56:48.795Z,100816.75
2019-01-24T12:59:56.030Z,100817.63
2019-01-24T13:03:03.319Z,100814.23
2019-01-24T13:06:10.535Z,100817.58
2019-01-24T13:09:18.100Z,100815.06
2019-01-24T13:12:34.562Z,100808.84
2019-01-24T13:15:41.969Z,100812.59
2019-01-24T13:18:58.805Z,100812.17
2019-01-24T13:22:06.208Z,100822.28
2019-01-24T13:25:24.789Z,100812.63
2019-01-24T13:28:32.020Z,100818.53
2019-01-24T13:31:39.147Z,100818.53
2019-01-24T13:34:46.378Z,100818.98
2019-01-24T13:37:53.678Z,100809.30
2019-01-24T13:41:00.997Z,100811.75
2019-01-24T13:44:08.286Z,100812.63
2019-01-24T13:47:15.513Z,100813.05
2019-01-24T13:50:22.894Z,100815.59
2019-01-24T13:53:30.132Z,100814.30
2019-01-24T13:56:37.431Z,100818.53
2019-01-24T13:59:44.647Z,100827.77
2019-01-24T14:02:55.469Z,100827.34
2019-01-24T14:06:02.882Z,100819.80
2019-01-24T14:09:10.939Z,100821.89
2019-01-24T14:12:18.144Z,100824.83
2019-01-24T14:15:25.373Z,100820.63
2019-01-24T14:18:32.665Z,100820.18
2019-01-24T14:21:39.879Z,100823.57
2019-01-24T14:24:47.251Z,100822.28
2019-01-24T14:27:54.480Z,100825.67
2019-01-24T14:31:01.613Z,100819.38
2019-01-24T14:34:08.925Z,100818.09
2019-01-24T14:37:16.347Z,100821.86
2019-01-24T14:40:23.627Z,100826.93
2019-01-24T14:43:40.250Z,100820.60
2019-01-24T14:46:47.383Z,100825.64
2019-01-24T14:49:54.684Z,100822.25
2019-01-24T14:53:11.332Z,100823.95
2019-01-24T14:56:28.177Z,100823.57
2019-01-24T14:59:35.344Z,100833.64
2019-01-24T15:02:52.158Z,100827.31
2019-01-24T15:05:59.456Z,100829.00
2019-01-24T15:09:16.090Z,100833.23
2019-01-24T15:12:23.222Z,100836.13
2019-01-24T15:15:40.041Z,100834.91
2019-01-24T15:18:56.838Z,100841.17
2019-01-24T15:22:13.529Z,100847.08
2019-01-24T15:25:20.964Z,100851.70
2019-01-24T15:28:37.557Z,100850.47
2019-01-24T15:31:54.368Z,100869.75
2019-01-24T15:35:11.294Z,100869.79
2019-01-24T15:38:27.899Z,100874.79
2019-01-24T15:41:44.627Z,100869.79
2019-01-24T15:44:51.487Z,100864.30
2019-01-24T15:47:58.981Z,100872.69
2019-01-24T15:51:06.283Z,100866.36
2019-01-24T15:54:22.912Z,100855.52
2019-01-24T15:57:30.077Z,100862.65
2019-01-24T16:00:37.388Z,100873.14
2019-01-24T16:03:43.551Z,100881.51
2019-01-24T16:06:50.891Z,100878.19
2019-01-24T16:09:58.357Z,100873.98
2019-01-24T16:13:06.044Z,100883.22
2019-01-24T16:16:13.266Z,100885.70
2019-01-24T16:19:20.487Z,100890.36
2019-01-24T16:22:27.821Z,100894.56
2019-01-24T16:25:44.537Z,100894.11
2019-01-24T16:29:01.214Z,100893.34
2019-01-24T16:32:18.041Z,100891.20
2019-01-24T16:35:34.848Z,100897.12
2019-01-24T16:39:01.603Z,100903.80
2019-01-24T16:42:09.305Z,100910.55
2019-01-24T16:45:27.229Z,100913.49
2019-01-24T16:48:43.973Z,100908.03
2019-01-24T16:51:50.124Z,100912.69
2019-01-24T16:54:57.365Z,100918.18
2019-01-24T16:58:06.030Z,100921.51
2019-01-24T17:01:23.343Z,100921.47
2019-01-24T17:04:30.484Z,100917.27
2019-01-24T17:07:37.633Z,100918.53
2019-01-24T17:10:45.123Z,100924.84
2019-01-24T17:13:52.316Z,100923.58
2019-01-24T17:16:59.712Z,100923.16
2019-01-24T17:20:11.680Z,100923.98
2019-01-24T17:23:18.944Z,100925.64
2019-01-24T17:26:26.318Z,100921.02
2019-01-24T17:29:33.463Z,100916.81
2019-01-24T17:32:40.853Z,100914.72
2019-01-24T17:35:47.111Z,100918.08
2019-01-24T17:38:54.440Z,100908.80
2019-01-24T17:42:01.745Z,100907.53
2019-01-24T17:45:12.688Z,100909.21
2019-01-24T17:48:19.993Z,100910.47
2019-01-24T17:51:36.717Z,100916.39
2019-01-24T17:54:43.951Z,100921.89
2019-01-24T17:58:00.787Z,100921.89
2019-01-24T18:01:18.325Z,100929.88
2019-01-24T18:04:25.579Z,100922.27
2019-01-24T18:07:32.770Z,100923.08
2019-01-24T18:10:40.077Z,100921.43
2019-01-24T18:13:47.276Z,100930.21
2019-01-24T18:16:54.519Z,100934.78
2019-01-24T18:20:01.735Z,100930.63
2019-01-24T18:23:09.694Z,100927.31
2019-01-24T18:26:17.602Z,100935.61
2019-01-24T18:29:24.909Z,100931.47
2019-01-24T18:32:32.060Z,100940.16
2019-01-24T18:35:39.351Z,100943.52
2019-01-24T18:38:46.634Z,100941.48
2019-01-24T18:41:53.783Z,100940.22
2019-01-24T18:45:01.358Z,100938.17
2019-01-24T18:48:08.759Z,100942.75
2019-01-24T18:51:25.525Z,100954.17
2019-01-24T18:54:32.687Z,100962.16
2019-01-24T18:57:39.912Z,100967.99
2019-01-24T19:00:47.781Z,100973.50
2019-01-24T19:03:54.978Z,100963.42
2019-01-24T19:07:02.201Z,100975.66
2019-01-24T19:10:10.284Z,100976.03
2019-01-24T19:13:16.841Z,100990.31
2019-01-24T19:16:24.079Z,100990.72
2019-01-24T19:19:31.335Z,100998.23
2019-01-24T19:22:38.655Z,100994.03
2019-01-24T19:25:45.949Z,100981.36
2019-01-24T19:28:53.518Z,100986.52
2019-01-24T19:32:01.133Z,100997.80
2019-01-24T19:35:10.808Z,100993.61
2019-01-24T19:38:18.580Z,101001.64
2019-01-24T19:41:36.993Z,100996.23
2019-01-24T19:44:53.569Z,100994.55
2019-01-24T19:48:10.330Z,100996.19
2019-01-24T19:51:26.921Z,101007.09
2019-01-24T19:54:34.224Z,101009.77
2019-01-24T19:57:41.526Z,101002.42
2019-01-24T20:00:58.065Z,101004.56
2019-01-24T20:04:05.609Z,101007.93
2019-01-24T20:07:13.306Z,101010.88
2019-01-24T20:10:22.292Z,101013.86
2019-01-24T20:13:29.406Z,101014.66
2019-01-24T20:16:36.629Z,101015.01
2019-01-24T20:19:43.855Z,101022.09
2019-01-24T20:22:51.519Z,101018.80
2019-01-24T20:25:57.039Z,101023.42
2019-01-24T20:29:04.424Z,101016.39
2019-01-24T20:32:11.795Z,101015.55
2019-01-24T20:35:24.911Z,101017.23
2019-01-24T20:38:32.121Z,101013.81
2019-01-24T20:41:39.337Z,101016.68
2019-01-24T20:44:46.575Z,101012.84
2019-01-24T20:47:53.874Z,101012.77
2019-01-24T20:51:01.026Z,101019.16
2019-01-24T20:54:08.312Z,101007.03
2019-01-24T20:57:15.703Z,101008.30
2019-01-24T21:00:23.340Z,101012.91
2019-01-24T21:03:39.793Z,101004.52
2019-01-24T21:06:56.449Z,101011.65
2019-01-24T21:10:04.266Z,101003.30
2019-01-24T21:13:11.588Z,101008.72
2019-01-24T21:16:18.838Z,101007.51
2019-01-24T21:19:26.053Z,101002.41
2019-01-24T21:22:33.444Z,101001.52
2019-01-24T21:25:40.666Z,101007.52
2019-01-24T21:28:47.903Z,101005.77
2019-01-24T21:31:55.026Z,101007.88
2019-01-24T21:35:02.171Z,101012.02
2019-01-24T21:38:09.778Z,101006.20
2019-01-24T21:41:16.917Z,100996.54
2019-01-24T21:44:33.965Z,100994.44
2019-01-24T21:47:41.180Z,100999.05
2019-01-24T21:50:48.432Z,100997.78
2019-01-24T21:53:55.731Z,101001.22
2019-01-24T21:57:12.480Z,101002.05
2019-01-24T22:00:22.051Z,100998.27
2019-01-24T22:03:29.373Z,101001.22
2019-01-24T22:06:36.594Z,101008.41
2019-01-24T22:09:43.755Z,101005.94
2019-01-24T22:12:51.073Z,101016.87
2019-01-24T22:15:58.352Z,101016.02
2019-01-24T22:19:05.658Z,101017.66
2019-01-24T22:22:12.859Z,101022.33
2019-01-24T22:25:28.488Z,101025.31
2019-01-24T22:28:45.165Z,101027.83
2019-01-24T22:31:52.407Z,101028.62
2019-01-24T22:35:09.259Z,101015.23
2019-01-24T22:38:25.829Z,101012.23
2019-01-24T22:41:33.063Z,101017.75
2019-01-24T22:44:40.288Z,101019.84
2019-01-24T22:47:57.081Z,101011.88
2019-01-24T22:51:04.292Z,101030.77
2019-01-24T22:54:20.926Z,101015.23
2019-01-24T22:57:28.155Z,101018.55
2019-01-24T23:01:09.824Z,101016.06
2019-01-24T23:04:19.558Z,101021.98
2019-01-24T23:07:36.262Z,101018.21
2019-01-24T23:10:53.025Z,101014.77
2019-01-24T23:14:00.228Z,101018.63
2019-01-24T23:17:07.627Z,101028.34
2019-01-24T23:20:24.277Z,101020.31
2019-01-24T23:23:40.996Z,101030.82
2019-01-24T23:26:48.129Z,101023.17
2019-01-24T23:29:55.470Z,101024.89
2019-01-24T23:33:12.233Z,101025.27
2019-01-24T23:36:19.453Z,101029.47
2019-01-24T23:39:26.604Z,101019.75
2019-01-24T23:42:33.851Z,101020.18
2019-01-24T23:45:41.064Z,101026.05
2019-01-24T23:48:57.677Z,101029.94
2019-01-24T23:52:14.445Z,101032.41
2019-01-24T23:55:21.578Z,101037.45
2019-01-24T23:58:28.218Z,101025.58
